createdAt,value
2019-03-30T00:01:19.414Z,96894.48
2019-03-30T00:03:47.793Z,96894.96
2019-03-30T00:06:15.074Z,96887.88
2019-03-30T00:08:42.402Z,96893.66
2019-03-30T00:11:09.439Z,96894.66
2019-03-30T00:13:36.494Z,96889.80
2019-03-30T00:16:03.531Z,96888.31
2019-03-30T00:18:30.579Z,96887.39
2019-03-30T00:20:57.617Z,96887.55
2019-03-30T00:23:24.666Z,96885.97
2019-03-30T00:25:52.681Z,96889.19
2019-03-30T00:28:19.736Z,96885.28
2019-03-30T00:30:46.783Z,96885.28
2019-03-30T00:33:14.797Z,96881.85
2019-03-30T00:35:41.834Z,96877.73
2019-03-30T00:38:08.892Z,96877.25
2019-03-30T00:40:35.932Z,96876.30
2019-03-30T00:43:03.336Z,96877.13
2019-03-30T00:45:30.618Z,96874.92
2019-03-30T00:47:57.658Z,96875.59
2019-03-30T00:50:24.714Z,96877.77
2019-03-30T00:52:51.747Z,96876.73
2019-03-30T00:55:18.799Z,96871.24
2019-03-30T00:57:45.839Z,96863.91
2019-03-30T01:00:12.898Z,96869.52
2019-03-30T01:02:39.930Z,96868.64
2019-03-30T01:05:06.982Z,96864.88
2019-03-30T01:07:34.326Z,96863.57
2019-03-30T01:10:02.453Z,96863.28
2019-03-30T01:12:29.490Z,96859.59
2019-03-30T01:14:56.794Z,96860.46
2019-03-30T01:17:25.066Z,96858.50
2019-03-30T01:20:02.672Z,96862.27
2019-03-30T01:22:21.120Z,96856.50
2019-03-30T01:24:48.179Z,96858.02
2019-03-30T01:27:15.459Z,96851.45
2019-03-30T01:29:42.505Z,96845.36
2019-03-30T01:32:09.539Z,96849.06
2019-03-30T01:34:36.589Z,96846.64
2019-03-30T01:37:03.877Z,96845.48
2019-03-30T01:39:30.920Z,96843.85
2019-03-30T01:41:57.952Z,96842.42
2019-03-30T01:44:25.000Z,96838.03
2019-03-30T01:46:52.282Z,96838.37
2019-03-30T01:49:19.336Z,96835.70
2019-03-30T01:51:46.621Z,96834.45
2019-03-30T01:54:13.934Z,96829.73
2019-03-30T01:56:40.974Z,96826.92
2019-03-30T01:59:08.021Z,96829.84
2019-03-30T02:01:35.060Z,96827.22
2019-03-30T02:04:02.105Z,96825.70
2019-03-30T02:06:29.137Z,96829.27
2019-03-30T02:08:56.187Z,96822.55
2019-03-30T02:11:23.224Z,96823.72
2019-03-30T02:13:50.268Z,96818.38
2019-03-30T02:16:17.623Z,96823.84
2019-03-30T02:18:44.934Z,96823.92
2019-03-30T02:21:11.969Z,96819.89
2019-03-30T02:23:39.011Z,96817.10
2019-03-30T02:26:06.311Z,96817.23
2019-03-30T02:28:33.348Z,96810.67
2019-03-30T02:31:00.402Z,96814.50
2019-03-30T02:33:27.698Z,96810.52
2019-03-30T02:35:54.735Z,96813.20
2019-03-30T02:38:21.772Z,96812.05
2019-03-30T02:40:48.827Z,96814.10
2019-03-30T02:43:16.132Z,96807.34
2019-03-30T02:45:43.179Z,96820.08
2019-03-30T02:48:10.462Z,96816.92
2019-03-30T02:50:49.541Z,96820.08
2019-03-30T02:53:06.239Z,96817.67
2019-03-30T02:55:33.532Z,96814.95
2019-03-30T02:58:00.812Z,96813.38
2019-03-30T03:00:28.102Z,96811.66
2019-03-30T03:02:55.135Z,96812.44
2019-03-30T03:05:22.182Z,96811.11
2019-03-30T03:07:49.289Z,96814.94
2019-03-30T03:10:16.340Z,96815.80
2019-03-30T03:12:43.631Z,96815.39
2019-03-30T03:15:10.928Z,96818.58
2019-03-30T03:17:38.218Z,96813.52
2019-03-30T03:20:05.374Z,96813.45
2019-03-30T03:22:32.631Z,96817.81
2019-03-30T03:24:59.678Z,96814.09
2019-03-30T03:27:26.732Z,96816.34
2019-03-30T03:29:54.179Z,96815.30
2019-03-30T03:32:21.469Z,96814.71
2019-03-30T03:34:48.864Z,96812.24
2019-03-30T03:37:15.899Z,96812.01
2019-03-30T03:39:42.948Z,96808.00
2019-03-30T03:42:10.316Z,96810.37
2019-03-30T03:44:37.369Z,96803.41
2019-03-30T03:47:04.396Z,96805.88
2019-03-30T03:49:31.787Z,96806.59
2019-03-30T03:51:59.139Z,96811.89
2019-03-30T03:54:26.172Z,96810.02
2019-03-30T03:56:53.456Z,96810.14
2019-03-30T03:59:20.777Z,96813.83
2019-03-30T04:01:48.068Z,96809.58
2019-03-30T04:04:15.110Z,96815.56
2019-03-30T04:06:42.160Z,96814.14
2019-03-30T04:09:09.485Z,96813.22
2019-03-30T04:11:36.831Z,96814.16
2019-03-30T04:14:04.187Z,96808.62
2019-03-30T04:16:31.236Z,96809.69
2019-03-30T04:18:58.613Z,96810.52
2019-03-30T04:21:42.425Z,96808.28
2019-03-30T04:23:54.943Z,96809.00
2019-03-30T04:26:22.089Z,96804.25
2019-03-30T04:28:49.442Z,96804.95
2019-03-30T04:31:16.507Z,96804.12
2019-03-30T04:33:43.863Z,96806.36
2019-03-30T04:36:11.204Z,96807.41
2019-03-30T04:38:38.567Z,96800.46
2019-03-30T04:41:05.859Z,96803.76
2019-03-30T04:43:32.982Z,96797.16
2019-03-30T04:46:00.333Z,96797.39
2019-03-30T04:48:29.499Z,96796.91
2019-03-30T04:50:56.457Z,96793.03
2019-03-30T04:53:23.495Z,96787.26
2019-03-30T04:55:50.865Z,96785.37
2019-03-30T04:58:18.221Z,96789.16
2019-03-30T05:00:45.593Z,96787.86
2019-03-30T05:03:12.926Z,96787.16
2019-03-30T05:05:43.002Z,96785.79
2019-03-30T05:08:09.303Z,96785.09
2019-03-30T05:10:36.348Z,96791.80
2019-03-30T05:13:03.697Z,96783.31
2019-03-30T05:15:30.734Z,96782.38
2019-03-30T05:17:57.786Z,96784.09
2019-03-30T05:20:25.079Z,96785.23
2019-03-30T05:22:52.501Z,96793.41
2019-03-30T05:25:20.769Z,96795.54
2019-03-30T05:27:47.815Z,96792.91
2019-03-30T05:30:14.856Z,96792.09
2019-03-30T05:32:42.130Z,96791.59
2019-03-30T05:35:09.617Z,96793.72
2019-03-30T05:37:37.801Z,96790.38
2019-03-30T05:40:05.099Z,96794.41
2019-03-30T05:42:32.658Z,96791.94
2019-03-30T05:45:00.030Z,96789.80
2019-03-30T05:47:27.376Z,96795.73
2019-03-30T05:49:54.722Z,96797.74
2019-03-30T05:52:26.781Z,96795.23
2019-03-30T05:54:50.872Z,96790.83
2019-03-30T05:57:18.224Z,96801.72
2019-03-30T05:59:45.272Z,96796.94
2019-03-30T06:02:12.624Z,96790.22
2019-03-30T06:04:39.906Z,96790.27
2019-03-30T06:07:11.270Z,96788.50
2019-03-30T06:09:38.302Z,96789.59
2019-03-30T06:12:05.373Z,96794.47
2019-03-30T06:14:32.682Z,96799.26
2019-03-30T06:16:59.731Z,96795.39
2019-03-30T06:19:27.083Z,96792.41
2019-03-30T06:21:54.141Z,96799.15
2019-03-30T06:24:21.487Z,96798.69
2019-03-30T06:26:49.885Z,96795.61
2019-03-30T06:29:16.927Z,96793.83
2019-03-30T06:31:46.878Z,96791.51
2019-03-30T06:34:13.364Z,96797.88
2019-03-30T06:36:40.733Z,96797.48
2019-03-30T06:39:12.993Z,96796.08
2019-03-30T06:41:40.041Z,96794.53
2019-03-30T06:44:07.390Z,96798.80
2019-03-30T06:46:34.750Z,96801.95
2019-03-30T06:49:02.041Z,96802.70
2019-03-30T06:51:29.075Z,96797.38
2019-03-30T06:53:56.127Z,96798.48
2019-03-30T06:56:23.223Z,96803.05
2019-03-30T06:58:50.223Z,96800.20
2019-03-30T07:01:17.258Z,96795.13
2019-03-30T07:03:44.596Z,96795.08
2019-03-30T07:06:11.885Z,96798.03
2019-03-30T07:08:39.198Z,96794.69
2019-03-30T07:11:20.218Z,96796.19
2019-03-30T07:13:35.258Z,96802.28
2019-03-30T07:16:02.300Z,96804.27
2019-03-30T07:18:29.647Z,96795.84
2019-03-30T07:20:57.004Z,96801.78
2019-03-30T07:23:24.056Z,96798.38
2019-03-30T07:25:51.409Z,96801.71
2019-03-30T07:28:18.457Z,96799.78
2019-03-30T07:30:45.822Z,96803.55
2019-03-30T07:33:13.181Z,96795.34
2019-03-30T07:35:41.540Z,96798.55
2019-03-30T07:38:08.599Z,96798.55
2019-03-30T07:40:35.943Z,96797.34
2019-03-30T07:43:03.315Z,96794.09
2019-03-30T07:45:40.998Z,96799.00
2019-03-30T07:48:08.055Z,96789.68
2019-03-30T07:50:35.419Z,96789.44
2019-03-30T07:53:02.765Z,96792.28
2019-03-30T07:55:30.052Z,96785.50
2019-03-30T07:57:57.134Z,96794.69
2019-03-30T08:00:30.452Z,96799.40
2019-03-30T08:02:53.608Z,96795.90
2019-03-30T08:05:20.962Z,96795.90
2019-03-30T08:07:48.004Z,96798.65
2019-03-30T08:10:15.062Z,96800.22
2019-03-30T08:12:42.099Z,96801.06
2019-03-30T08:15:09.466Z,96796.84
2019-03-30T08:17:36.835Z,96793.20
2019-03-30T08:20:04.172Z,96795.34
2019-03-30T08:22:31.527Z,96793.34
2019-03-30T08:24:58.881Z,96798.94
2019-03-30T08:27:27.263Z,96794.41
2019-03-30T08:29:54.315Z,96801.23
2019-03-30T08:32:22.585Z,96798.89
2019-03-30T08:34:49.643Z,96801.85
2019-03-30T08:37:16.947Z,96804.23
2019-03-30T08:39:44.002Z,96795.52
2019-03-30T08:45:05.606Z,96792.31
2019-03-30T08:47:32.636Z,96795.82
2019-03-30T08:49:59.999Z,96796.66
2019-03-30T08:52:27.335Z,96797.30
2019-03-30T08:54:54.389Z,96799.83
2019-03-30T08:57:21.446Z,96796.23
2019-03-30T08:59:48.503Z,96794.27
2019-03-30T09:02:15.542Z,96792.87
2019-03-30T09:04:42.600Z,96791.63
2019-03-30T09:07:09.935Z,96788.41
2019-03-30T09:09:36.994Z,96791.69
2019-03-30T09:12:04.356Z,96783.49
2019-03-30T09:14:31.665Z,96790.00
2019-03-30T09:16:59.062Z,96791.55
2019-03-30T09:19:26.399Z,96786.03
2019-03-30T09:21:53.751Z,96789.16
2019-03-30T09:24:20.806Z,96788.53
2019-03-30T09:26:48.159Z,96785.48
2019-03-30T09:29:15.527Z,96778.34
2019-03-30T09:31:42.574Z,96780.00
2019-03-30T09:34:09.929Z,96779.78
2019-03-30T09:36:37.420Z,96780.84
2019-03-30T09:39:04.847Z,96779.31
2019-03-30T09:41:31.910Z,96777.01
2019-03-30T09:43:59.230Z,96776.30
2019-03-30T09:46:26.295Z,96773.72
2019-03-30T09:48:53.343Z,96764.50
2019-03-30T09:51:20.683Z,96767.84
2019-03-30T09:53:48.038Z,96770.38
2019-03-30T09:56:15.413Z,96765.88
2019-03-30T09:58:42.446Z,96758.06
2019-03-30T10:03:52.203Z,96746.36
2019-03-30T10:06:19.262Z,96753.12
2019-03-30T10:08:46.301Z,96752.15
2019-03-30T10:11:13.657Z,96746.21
2019-03-30T10:13:41.011Z,96739.72
2019-03-30T10:16:08.364Z,96741.92
2019-03-30T10:18:36.374Z,96743.20
2019-03-30T10:21:03.434Z,96742.65
2019-03-30T10:23:30.741Z,96739.33
2019-03-30T10:25:57.794Z,96733.69
2019-03-30T10:28:25.082Z,96738.19
2019-03-30T10:30:52.191Z,96729.02
2019-03-30T10:33:20.058Z,96732.63
2019-03-30T10:35:47.411Z,96738.18
2019-03-30T10:38:14.458Z,96726.89
2019-03-30T10:40:41.816Z,96732.47
2019-03-30T10:43:09.170Z,96727.22
2019-03-30T10:45:36.527Z,96725.36
2019-03-30T10:48:04.904Z,96729.37
2019-03-30T10:50:32.258Z,96722.75
2019-03-30T10:52:59.314Z,96719.86
2019-03-30T10:55:26.361Z,96721.13
2019-03-30T10:57:53.656Z,96714.95
2019-03-30T11:00:20.982Z,96712.52
2019-03-30T11:02:48.319Z,96712.80
2019-03-30T11:05:15.672Z,96707.09
2019-03-30T11:07:43.031Z,96703.92
2019-03-30T11:10:10.382Z,96695.99
2019-03-30T11:12:37.738Z,96695.30
2019-03-30T11:15:05.091Z,96700.73
2019-03-30T11:17:38.387Z,96693.70
2019-03-30T11:20:05.431Z,96692.45
2019-03-30T11:22:32.713Z,96692.56
2019-03-30T11:25:07.501Z,96680.52
2019-03-30T11:27:29.757Z,96682.72
2019-03-30T11:29:56.789Z,96675.61
2019-03-30T11:32:24.154Z,96671.63
2019-03-30T11:34:51.510Z,96673.27
2019-03-30T11:37:21.124Z,96662.00
2019-03-30T11:39:48.414Z,96663.54
2019-03-30T11:42:15.833Z,96659.55
2019-03-30T11:44:43.207Z,96662.64
2019-03-30T11:47:10.559Z,96661.23
2019-03-30T11:49:37.896Z,96655.83
2019-03-30T11:52:04.958Z,96658.12
2019-03-30T11:54:31.994Z,96653.17
2019-03-30T11:56:59.579Z,96642.98
2019-03-30T11:59:27.209Z,96640.30
2019-03-30T12:01:54.570Z,96636.75
2019-03-30T12:04:22.860Z,96639.62
2019-03-30T12:06:51.788Z,96643.57
2019-03-30T12:09:18.992Z,96636.11
2019-03-30T12:11:46.166Z,96631.87
2019-03-30T12:14:13.306Z,96624.13
2019-03-30T12:16:40.357Z,96624.54
2019-03-30T12:19:07.421Z,96623.02
2019-03-30T12:21:34.460Z,96618.31
2019-03-30T12:24:01.529Z,96621.48
2019-03-30T12:26:28.827Z,96621.94
2019-03-30T12:28:55.886Z,96611.95
2019-03-30T12:31:22.940Z,96610.34
2019-03-30T12:33:50.010Z,96612.36
2019-03-30T12:36:17.044Z,96608.06
2019-03-30T12:38:44.121Z,96600.58
2019-03-30T12:41:11.161Z,96597.30
2019-03-30T12:43:39.162Z,96591.47
2019-03-30T12:46:09.304Z,96590.28
2019-03-30T12:48:36.368Z,96585.35
2019-03-30T12:51:03.734Z,96586.67
2019-03-30T12:53:30.796Z,96575.39
2019-03-30T12:55:58.123Z,96579.45
2019-03-30T13:01:07.509Z,96566.30
2019-03-30T13:03:36.725Z,96562.64
2019-03-30T13:06:06.163Z,96556.81
2019-03-30T13:08:36.039Z,96553.70
2019-03-30T13:11:04.345Z,96552.67
2019-03-30T13:13:32.806Z,96549.23
2019-03-30T13:16:01.166Z,96545.41
2019-03-30T13:18:28.436Z,96544.74
2019-03-30T13:20:55.507Z,96541.86
2019-03-30T13:26:03.539Z,96537.95
2019-03-30T13:28:25.393Z,96540.56
2019-03-30T13:30:59.187Z,96536.98
2019-03-30T13:36:23.710Z,96527.95
2019-03-30T13:38:55.043Z,96531.02
2019-03-30T13:41:30.402Z,96528.80
2019-03-30T13:43:57.590Z,96526.58
2019-03-30T13:46:25.840Z,96517.06
2019-03-30T13:48:55.057Z,96517.73
2019-03-30T13:51:24.232Z,96515.38
2019-03-30T13:53:51.559Z,96515.45
2019-03-30T14:01:41.852Z,96505.25
2019-03-30T14:04:12.164Z,96504.69
2019-03-30T14:06:40.118Z,96509.91
2019-03-30T14:09:08.349Z,96508.39
2019-03-30T14:11:40.185Z,96503.60
2019-03-30T14:14:07.551Z,96496.45
2019-03-30T14:16:41.878Z,96496.46
2019-03-30T14:19:10.151Z,96491.50
2019-03-30T14:21:42.155Z,96497.97
2019-03-30T14:24:10.378Z,96498.31
2019-03-30T14:26:40.937Z,96485.70
2019-03-30T14:29:12.579Z,96484.94
2019-03-30T14:31:42.654Z,96476.98
2019-03-30T14:34:09.922Z,96474.84
2019-03-30T14:36:37.343Z,96472.58
2019-03-30T14:39:08.586Z,96473.02
2019-03-30T14:41:36.782Z,96465.97
2019-03-30T14:46:58.489Z,96462.72
2019-03-30T14:57:23.303Z,96446.42
2019-03-30T14:59:52.743Z,96445.83
2019-03-30T15:10:46.731Z,96441.37
2019-03-30T15:16:07.247Z,96437.56
2019-03-30T15:18:42.829Z,96428.88
2019-03-30T15:21:10.048Z,96437.33
2019-03-30T15:23:42.587Z,96435.31
2019-03-30T15:28:58.230Z,96425.56
2019-03-30T15:34:11.525Z,96424.90
2019-03-30T15:36:42.924Z,96417.98
2019-03-30T15:39:22.543Z,96415.75
2019-03-30T15:44:29.004Z,96414.09
2019-03-30T15:46:59.917Z,96408.13
2019-03-30T15:49:29.167Z,96406.59
2019-03-30T15:54:48.988Z,96403.96
2019-03-30T15:57:16.613Z,96398.48
2019-03-30T15:59:44.725Z,96400.94
2019-03-30T16:04:49.768Z,96399.54
2019-03-30T16:07:21.837Z,96389.79
2019-03-30T16:12:42.961Z,96398.70
2019-03-30T16:17:56.102Z,96397.28
2019-03-30T16:20:23.353Z,96395.97
2019-03-30T16:22:54.246Z,96393.03
2019-03-30T16:25:28.874Z,96388.45
2019-03-30T16:27:56.328Z,96388.66
2019-03-30T16:33:11.024Z,96396.07
2019-03-30T16:35:38.367Z,96394.13
2019-03-30T16:38:05.823Z,96400.11
2019-03-30T16:40:32.871Z,96396.84
2019-03-30T16:43:02.377Z,96399.67
2019-03-30T16:45:30.577Z,96399.66
2019-03-30T16:48:01.950Z,96397.34
2019-03-30T16:50:32.149Z,96392.97
2019-03-30T16:55:40.554Z,96397.70
2019-03-30T16:58:08.775Z,96393.30
2019-03-30T17:00:55.632Z,96399.75
2019-03-30T17:03:12.242Z,96394.14
2019-03-30T17:05:43.631Z,96394.70
2019-03-30T17:11:03.906Z,96389.13
2019-03-30T17:13:31.359Z,96388.74
2019-03-30T17:16:00.592Z,96392.23
2019-03-30T17:18:33.958Z,96388.96
2019-03-30T17:21:01.139Z,96391.23
2019-03-30T17:23:29.331Z,96389.44
2019-03-30T17:26:02.706Z,96396.36
2019-03-30T17:33:36.415Z,96398.86
2019-03-30T17:36:09.338Z,96397.70
2019-03-30T17:41:09.846Z,96393.25
2019-03-30T17:46:15.151Z,96390.81
2019-03-30T17:48:42.214Z,96386.90
2019-03-30T17:51:18.298Z,96393.58
2019-03-30T17:53:47.821Z,96394.81
2019-03-30T17:56:16.319Z,96393.91
2019-03-30T17:58:44.788Z,96393.36
2019-03-30T18:01:15.755Z,96390.15
2019-03-30T18:03:43.949Z,96388.92
2019-03-30T18:06:11.866Z,96388.02
2019-03-30T18:08:43.982Z,96394.14
2019-03-30T18:11:13.438Z,96396.09
2019-03-30T18:13:44.478Z,96395.81
2019-03-30T18:16:11.835Z,96390.11
2019-03-30T18:18:42.115Z,96397.09
2019-03-30T18:21:20.675Z,96398.16
2019-03-30T18:23:49.940Z,96400.18
2019-03-30T18:26:18.183Z,96400.90
2019-03-30T18:28:47.398Z,96405.23
2019-03-30T18:31:15.320Z,96420.05
2019-03-30T18:33:43.537Z,96419.71
2019-03-30T18:36:11.581Z,96419.01
2019-03-30T18:38:39.020Z,96420.72
2019-03-30T18:41:06.200Z,96423.78
2019-03-30T18:43:33.473Z,96414.20
2019-03-30T18:46:06.390Z,96417.30
2019-03-30T18:48:37.981Z,96416.44
2019-03-30T18:51:06.448Z,96427.90
2019-03-30T18:53:34.115Z,96428.40
2019-03-30T18:56:02.610Z,96426.80
2019-03-30T18:58:41.045Z,96424.35
2019-03-30T19:00:59.591Z,96425.20
2019-03-30T19:03:26.926Z,96435.91
2019-03-30T19:05:53.967Z,96440.38
2019-03-30T19:08:21.542Z,96438.45
2019-03-30T19:10:48.874Z,96435.42
2019-03-30T19:13:16.249Z,96437.44
2019-03-30T19:15:43.580Z,96436.80
2019-03-30T19:18:11.898Z,96432.05
2019-03-30T19:20:39.284Z,96433.03
2019-03-30T19:23:13.671Z,96430.27
2019-03-30T19:25:45.709Z,96430.41
2019-03-30T19:28:14.939Z,96423.36
2019-03-30T19:30:43.140Z,96431.87
2019-03-30T19:33:15.368Z,96432.19
2019-03-30T19:35:44.598Z,96433.18
2019-03-30T19:38:11.637Z,96441.22
2019-03-30T19:40:39.810Z,96436.35
2019-03-30T19:43:16.753Z,96433.44
2019-03-30T19:45:45.065Z,96442.64
2019-03-30T19:48:18.730Z,96435.78
2019-03-30T19:50:46.185Z,96436.11
2019-03-30T19:53:13.949Z,96444.62
2019-03-30T19:55:41.145Z,96441.67
2019-03-30T19:58:09.093Z,96442.66
2019-03-30T20:00:38.694Z,96440.09
2019-03-30T20:03:06.520Z,96443.40
2019-03-30T20:05:35.679Z,96443.80
2019-03-30T20:08:11.966Z,96438.08
2019-03-30T20:10:34.616Z,96444.16
2019-03-30T20:13:15.138Z,96443.00
2019-03-30T20:15:42.417Z,96443.84
2019-03-30T20:18:10.685Z,96449.73
2019-03-30T20:20:37.942Z,96446.93
2019-03-30T20:23:08.730Z,96451.31
2019-03-30T20:25:38.135Z,96442.56
2019-03-30T20:28:23.105Z,96441.87
2019-03-30T20:33:23.870Z,96436.78
2019-03-30T20:35:53.104Z,96440.56
2019-03-30T20:38:20.405Z,96442.75
2019-03-30T20:45:52.235Z,96432.73
2019-03-30T20:48:26.829Z,96432.73
2019-03-30T20:50:57.527Z,96435.48
2019-03-30T20:53:38.345Z,96426.61
2019-03-30T20:56:05.787Z,96433.33
2019-03-30T20:58:43.382Z,96429.44
2019-03-30T21:01:10.582Z,96427.80
2019-03-30T21:03:44.042Z,96430.25
2019-03-30T21:06:16.021Z,96434.50
2019-03-30T21:08:43.177Z,96433.86
2019-03-30T21:11:10.446Z,96432.69
2019-03-30T21:13:44.233Z,96431.38
2019-03-30T21:16:12.422Z,96429.57
2019-03-30T21:18:44.681Z,96430.37
2019-03-30T21:21:13.894Z,96425.54
2019-03-30T21:23:41.204Z,96424.53
2019-03-30T21:26:08.558Z,96421.73
2019-03-30T21:28:36.128Z,96421.11
2019-03-30T21:31:03.168Z,96426.92
2019-03-30T21:33:30.626Z,96424.16
2019-03-30T21:35:57.977Z,96419.11
2019-03-30T21:38:25.333Z,96420.44
2019-03-30T21:40:52.387Z,96422.39
2019-03-30T21:43:19.950Z,96417.30
2019-03-30T21:45:47.301Z,96420.20
2019-03-30T21:48:14.338Z,96419.14
2019-03-30T21:50:41.388Z,96412.88
2019-03-30T21:53:08.425Z,96417.28
2019-03-30T21:55:35.793Z,96418.32
2019-03-30T21:58:02.863Z,96417.63
2019-03-30T22:00:30.220Z,96419.95
2019-03-30T22:02:57.554Z,96417.22
2019-03-30T22:05:24.611Z,96418.87
2019-03-30T22:07:51.959Z,96418.22
2019-03-30T22:10:19.009Z,96413.78
2019-03-30T22:12:46.054Z,96416.70
2019-03-30T22:15:13.411Z,96415.20
2019-03-30T22:17:40.782Z,96414.20
2019-03-30T22:20:08.119Z,96411.56
2019-03-30T22:22:35.190Z,96413.16
2019-03-30T22:25:02.245Z,96405.88
2019-03-30T22:27:29.288Z,96409.38
2019-03-30T22:29:56.440Z,96411.00
2019-03-30T22:32:23.489Z,96415.23
2019-03-30T22:34:50.813Z,96406.92
2019-03-30T22:37:18.170Z,96409.22
2019-03-30T22:39:45.212Z,96399.59
2019-03-30T22:42:12.264Z,96404.03
2019-03-30T22:44:39.304Z,96405.05
2019-03-30T22:47:06.670Z,96396.86
2019-03-30T22:49:33.958Z,96402.92
2019-03-30T22:52:01.005Z,96402.41
2019-03-30T22:54:28.343Z,96401.59
2019-03-30T22:56:55.685Z,96403.37
2019-03-30T22:59:23.054Z,96400.72
2019-03-30T23:01:50.106Z,96395.45
2019-03-30T23:04:17.439Z,96403.90
2019-03-30T23:06:46.751Z,96395.19
2019-03-30T23:09:27.033Z,96396.33
2019-03-30T23:11:54.370Z,96393.68
2019-03-30T23:14:33.845Z,96393.86
2019-03-30T23:17:01.086Z,96385.17
2019-03-30T23:19:34.360Z,96392.37
2019-03-30T23:22:06.448Z,96389.42
2019-03-30T23:24:33.757Z,96388.29
2019-03-30T23:27:04.178Z,96393.70
2019-03-30T23:29:31.539Z,96387.80
2019-03-30T23:31:58.892Z,96392.02
2019-03-30T23:34:26.177Z,96386.80
2019-03-30T23:36:53.502Z,96383.39
2019-03-30T23:39:20.791Z,96383.97
2019-03-30T23:41:48.126Z,96388.62
2019-03-30T23:44:15.466Z,96384.23
2019-03-30T23:46:42.821Z,96386.95
2019-03-30T23:49:11.169Z,96380.69
2019-03-30T23:51:38.468Z,96377.64
2019-03-30T23:54:05.761Z,96376.91
2019-03-30T23:56:33.065Z,96373.19
2019-03-30T23:59:00.355Z,96373.37
